createdAt,value
2018-03-24T00:00:47.705Z,33.60
2018-03-24T00:01:47.604Z,33.90
2018-03-24T00:02:47.486Z,35.60
2018-03-24T00:03:47.381Z,34.00
2018-03-24T00:04:47.278Z,35.30
2018-03-24T00:05:47.175Z,34.40
2018-03-24T00:06:47.072Z,31.20
2018-03-24T00:07:46.968Z,32.90
2018-03-24T00:08:46.865Z,33.00
2018-03-24T00:09:46.753Z,31.30
2018-03-24T00:10:46.647Z,31.60
2018-03-24T00:11:46.543Z,31.10
2018-03-24T00:12:46.440Z,33.30
2018-03-24T00:13:46.339Z,33.20
2018-03-24T00:14:46.234Z,33.10
2018-03-24T00:15:46.131Z,31.00
2018-03-24T00:16:46.015Z,31.60
2018-03-24T00:17:45.912Z,32.40
2018-03-24T00:18:45.808Z,30.30
2018-03-24T00:19:45.704Z,32.80
2018-03-24T00:20:45.600Z,30.30
2018-03-24T00:21:45.497Z,31.20
2018-03-24T00:22:45.395Z,33.10
2018-03-24T00:23:45.303Z,34.60
2018-03-24T00:24:45.175Z,31.10
2018-03-24T00:25:45.071Z,31.60
2018-03-24T00:26:44.971Z,32.00
2018-03-24T00:27:44.866Z,31.80
2018-03-24T00:28:44.761Z,30.00
2018-03-24T00:29:44.960Z,30.40
2018-03-24T00:30:44.556Z,27.90
2018-03-24T00:31:44.440Z,29.80
2018-03-24T00:32:44.336Z,31.70
2018-03-24T00:33:44.232Z,28.60
2018-03-24T00:34:44.129Z,32.10
2018-03-24T00:35:44.026Z,27.80
2018-03-24T00:36:43.922Z,29.50
2018-03-24T00:37:43.821Z,30.10
2018-03-24T00:38:43.715Z,29.40
2018-03-24T00:39:43.600Z,29.30
2018-03-24T00:40:43.498Z,28.10
2018-03-24T00:41:43.394Z,29.80
2018-03-24T00:42:43.291Z,30.70
2018-03-24T00:43:43.188Z,29.70
2018-03-24T00:44:43.083Z,29.00
2018-03-24T00:45:42.983Z,28.80
2018-03-24T00:46:42.867Z,29.90
2018-03-24T00:47:42.763Z,29.50
2018-03-24T00:48:42.658Z,33.50
2018-03-24T00:49:42.555Z,29.30
2018-03-24T00:50:42.450Z,29.40
2018-03-24T00:51:42.386Z,28.40
2018-03-24T00:52:42.245Z,27.40
2018-03-24T00:53:42.129Z,26.70
2018-03-24T00:54:42.027Z,26.00
2018-03-24T00:55:41.923Z,29.60
2018-03-24T00:56:41.826Z,27.40
2018-03-24T00:57:41.715Z,27.00
2018-03-24T00:58:41.612Z,27.20
2018-03-24T00:59:41.510Z,27.20
2018-03-24T01:00:41.394Z,27.80
2018-03-24T01:01:41.290Z,27.00
2018-03-24T01:02:41.186Z,28.30
2018-03-24T01:03:41.083Z,26.20
2018-03-24T01:04:40.979Z,26.10
2018-03-24T01:05:40.880Z,28.70
2018-03-24T01:06:40.772Z,27.60
2018-03-24T01:07:40.658Z,27.10
2018-03-24T01:08:40.555Z,27.20
2018-03-24T01:09:40.452Z,26.90
2018-03-24T01:10:40.348Z,25.30
2018-03-24T01:11:40.247Z,25.00
2018-03-24T01:12:40.141Z,27.30
2018-03-24T01:13:40.037Z,24.70
2018-03-24T01:14:39.923Z,25.40
2018-03-24T01:15:39.817Z,26.60
2018-03-24T01:16:39.714Z,24.60
2018-03-24T01:17:39.611Z,24.10
2018-03-24T01:18:39.508Z,24.80
2018-03-24T01:19:39.405Z,24.80
2018-03-24T01:20:39.301Z,22.70
2018-03-24T01:21:39.189Z,26.80
2018-03-24T01:22:39.083Z,25.40
2018-03-24T01:23:38.979Z,26.60
2018-03-24T01:24:38.876Z,26.70
2018-03-24T01:25:38.785Z,24.80
2018-03-24T01:26:38.670Z,26.90
2018-03-24T01:27:38.556Z,29.20
2018-03-24T01:28:38.450Z,25.00
2018-03-24T01:29:38.346Z,27.10
2018-03-24T01:30:38.243Z,24.00
2018-03-24T01:31:38.145Z,24.70
2018-03-24T01:32:38.036Z,24.20
2018-03-24T01:33:37.933Z,24.70
2018-03-24T01:34:37.833Z,26.40
2018-03-24T01:35:37.714Z,23.90
2018-03-24T01:36:37.612Z,23.70
2018-03-24T01:37:37.506Z,25.10
2018-03-24T01:38:37.405Z,25.10
2018-03-24T01:39:37.301Z,24.70
2018-03-24T01:40:37.199Z,25.10
2018-03-24T01:41:37.085Z,24.50
2018-03-24T01:42:36.978Z,26.40
2018-03-24T01:43:36.875Z,25.20
2018-03-24T01:44:36.772Z,24.20
2018-03-24T01:45:36.668Z,26.60
2018-03-24T01:46:36.567Z,25.00
2018-03-24T01:47:36.475Z,25.70
2018-03-24T01:48:36.346Z,26.60
2018-03-24T01:49:36.244Z,24.10
2018-03-24T01:50:36.141Z,24.50
2018-03-24T01:51:36.037Z,25.70
2018-03-24T01:52:35.933Z,23.50
2018-03-24T01:53:35.830Z,24.00
2018-03-24T01:54:35.720Z,25.10
2018-03-24T01:55:35.610Z,25.00
2018-03-24T01:56:35.507Z,24.70
2018-03-24T01:57:35.404Z,25.60
2018-03-24T01:58:35.300Z,24.80
2018-03-24T01:59:35.196Z,25.00
2018-03-24T02:00:35.093Z,25.10
2018-03-24T02:01:34.978Z,24.80
2018-03-24T02:02:34.874Z,26.20
2018-03-24T02:03:34.772Z,25.20
2018-03-24T02:04:34.668Z,25.50
2018-03-24T02:05:34.565Z,25.60
2018-03-24T02:06:34.461Z,25.80
2018-03-24T02:07:34.345Z,24.00
2018-03-24T02:08:34.244Z,27.60
2018-03-24T02:09:34.138Z,24.80
2018-03-24T02:10:34.035Z,23.20
2018-03-24T02:11:33.932Z,25.90
2018-03-24T02:12:33.829Z,25.50
2018-03-24T02:13:33.713Z,26.60
2018-03-24T02:14:33.610Z,26.30
2018-03-24T02:15:33.512Z,27.50
2018-03-24T02:16:33.404Z,27.30
2018-03-24T02:17:33.301Z,25.70
2018-03-24T02:18:33.184Z,26.50
2018-03-24T02:19:33.080Z,26.60
2018-03-24T02:20:32.977Z,25.60
2018-03-24T02:21:32.874Z,25.20
2018-03-24T02:22:32.770Z,25.40
2018-03-24T02:23:32.656Z,24.10
2018-03-24T02:24:32.552Z,25.60
2018-03-24T02:25:32.449Z,24.80
2018-03-24T02:26:32.349Z,23.80
2018-03-24T02:27:32.242Z,25.40
2018-03-24T02:28:32.127Z,24.60
2018-03-24T02:29:32.022Z,25.70
2018-03-24T02:30:31.919Z,27.40
2018-03-24T02:31:31.817Z,25.80
2018-03-24T02:32:31.713Z,25.80
2018-03-24T02:33:31.598Z,23.90
2018-03-24T02:34:31.495Z,25.60
2018-03-24T02:35:31.392Z,25.00
2018-03-24T02:36:31.288Z,22.40
2018-03-24T02:37:31.194Z,24.20
2018-03-24T02:38:31.069Z,22.40
2018-03-24T02:39:30.965Z,24.30
2018-03-24T02:40:30.900Z,24.20
2018-03-24T02:41:30.758Z,22.60
2018-03-24T02:42:30.655Z,23.00
2018-03-24T02:43:30.539Z,22.00
2018-03-24T02:44:30.444Z,22.60
2018-03-24T02:45:30.334Z,21.20
2018-03-24T02:46:30.229Z,23.20
2018-03-24T02:47:30.126Z,23.20
2018-03-24T02:48:30.012Z,21.90
2018-03-24T02:49:29.909Z,22.50
2018-03-24T02:50:29.803Z,22.50
2018-03-24T02:51:29.700Z,22.10
2018-03-24T02:52:29.596Z,22.50
2018-03-24T02:53:29.495Z,21.50
2018-03-24T02:54:29.381Z,23.40
2018-03-24T02:55:29.274Z,24.30
2018-03-24T02:56:29.171Z,21.20
2018-03-24T02:57:29.069Z,20.80
2018-03-24T02:58:28.964Z,22.30
2018-03-24T02:59:28.913Z,22.00
2018-03-24T03:00:28.744Z,22.40
2018-03-24T03:01:28.664Z,21.20
2018-03-24T03:02:28.551Z,21.60
2018-03-24T03:03:28.452Z,23.30
2018-03-24T03:04:28.320Z,21.80
2018-03-24T03:05:28.216Z,21.60
2018-03-24T03:06:28.113Z,21.60
2018-03-24T03:07:28.010Z,23.90
2018-03-24T03:08:27.906Z,20.40
2018-03-24T03:09:27.792Z,22.50
2018-03-24T03:10:27.686Z,20.10
2018-03-24T03:11:27.585Z,20.70
2018-03-24T03:12:27.480Z,22.30
2018-03-24T03:13:27.376Z,21.50
2018-03-24T03:14:27.273Z,20.00
2018-03-24T03:15:27.158Z,23.00
2018-03-24T03:16:27.055Z,21.70
2018-03-24T03:17:26.951Z,21.20
2018-03-24T03:18:26.848Z,21.70
2018-03-24T03:19:26.744Z,22.40
2018-03-24T03:20:26.628Z,22.70
2018-03-24T03:21:26.525Z,21.70
2018-03-24T03:22:26.422Z,22.70
2018-03-24T03:23:26.318Z,22.00
2018-03-24T03:24:26.204Z,23.20
2018-03-24T03:25:26.100Z,22.50
2018-03-24T03:26:25.997Z,22.00
2018-03-24T03:27:25.893Z,21.20
2018-03-24T03:28:25.790Z,22.70
2018-03-24T03:29:25.678Z,22.50
2018-03-24T03:30:25.571Z,23.10
2018-03-24T03:31:25.473Z,23.60
2018-03-24T03:32:25.363Z,21.80
2018-03-24T03:33:25.260Z,22.90
2018-03-24T03:34:25.145Z,24.80
2018-03-24T03:35:25.042Z,25.60
2018-03-24T03:36:24.938Z,21.90
2018-03-24T03:37:24.835Z,21.30
2018-03-24T03:38:24.719Z,21.80
2018-03-24T03:39:24.869Z,23.20
2018-03-24T03:40:24.512Z,22.50
2018-03-24T03:41:24.408Z,24.00
2018-03-24T03:42:24.305Z,22.70
2018-03-24T03:43:24.190Z,22.80
2018-03-24T03:44:24.087Z,23.90
2018-03-24T03:45:23.983Z,23.60
2018-03-24T03:46:23.880Z,21.70
2018-03-24T03:47:23.778Z,22.90
2018-03-24T03:48:23.660Z,23.50
2018-03-24T03:49:23.556Z,21.10
2018-03-24T03:50:23.453Z,22.40
2018-03-24T03:51:23.354Z,22.60
2018-03-24T03:52:23.235Z,24.10
2018-03-24T03:53:23.131Z,24.00
2018-03-24T03:54:23.029Z,22.10
2018-03-24T03:55:22.925Z,22.40
2018-03-24T03:56:22.810Z,24.50
2018-03-24T03:57:22.705Z,21.70
2018-03-24T03:58:22.602Z,22.80
2018-03-24T03:59:22.499Z,23.20
2018-03-24T04:00:22.395Z,22.90
2018-03-24T04:01:22.292Z,22.30
2018-03-24T04:02:22.188Z,23.00
2018-03-24T04:03:22.074Z,23.00
2018-03-24T04:04:21.970Z,22.80
2018-03-24T04:05:21.867Z,24.60
2018-03-24T04:06:21.752Z,22.30
2018-03-24T04:07:21.648Z,23.60
2018-03-24T04:08:21.545Z,24.20
2018-03-24T04:09:21.442Z,23.50
2018-03-24T04:10:21.337Z,23.50
2018-03-24T04:11:21.223Z,23.70
2018-03-24T04:12:21.120Z,23.70
2018-03-24T04:13:21.016Z,23.80
2018-03-24T04:14:20.913Z,23.60
2018-03-24T04:15:20.812Z,22.80
2018-03-24T04:16:20.705Z,22.70
2018-03-24T04:17:20.595Z,23.70
2018-03-24T04:18:20.486Z,22.80
2018-03-24T04:19:20.382Z,20.80
2018-03-24T04:20:20.279Z,22.90
2018-03-24T04:21:20.175Z,23.40
2018-03-24T04:22:20.066Z,25.30
2018-03-24T04:23:19.958Z,24.70
2018-03-24T04:24:20.106Z,22.40
2018-03-24T04:25:19.751Z,23.80
2018-03-24T04:26:19.648Z,24.50
2018-03-24T04:27:19.533Z,21.30
2018-03-24T04:28:19.427Z,21.40
2018-03-24T04:29:19.325Z,25.30
2018-03-24T04:30:19.221Z,24.20
2018-03-24T04:31:19.118Z,24.10
2018-03-24T04:32:19.016Z,24.70
2018-03-24T04:33:18.899Z,21.40
2018-03-24T04:34:18.798Z,24.10
2018-03-24T04:35:18.692Z,22.10
2018-03-24T04:36:18.589Z,23.80
2018-03-24T04:37:18.487Z,24.30
2018-03-24T04:38:18.383Z,22.70
2018-03-24T04:39:18.266Z,24.20
2018-03-24T04:40:18.162Z,24.00
2018-03-24T04:41:18.061Z,22.80
2018-03-24T04:42:17.961Z,22.60
2018-03-24T04:43:17.852Z,24.70
2018-03-24T04:44:17.741Z,23.80
2018-03-24T04:45:17.635Z,24.30
2018-03-24T04:46:17.530Z,23.40
2018-03-24T04:47:17.427Z,23.50
2018-03-24T04:48:17.330Z,25.30
2018-03-24T04:49:17.221Z,24.80
2018-03-24T04:50:17.105Z,23.60
2018-03-24T04:51:17.001Z,24.40
2018-03-24T04:52:16.911Z,24.30
2018-03-24T04:53:16.795Z,24.20
2018-03-24T04:54:16.704Z,24.90
2018-03-24T04:55:16.576Z,23.70
2018-03-24T04:56:16.473Z,24.10
2018-03-24T04:57:16.370Z,22.90
2018-03-24T04:58:16.272Z,25.20
2018-03-24T04:59:16.162Z,24.90
2018-03-24T05:00:16.060Z,24.20
2018-03-24T05:01:15.944Z,22.60
2018-03-24T05:02:15.839Z,23.60
2018-03-24T05:03:15.735Z,25.00
2018-03-24T05:04:15.633Z,24.20
2018-03-24T05:05:15.529Z,23.70
2018-03-24T05:06:15.426Z,24.30
2018-03-24T05:07:15.312Z,24.50
2018-03-24T05:08:15.208Z,23.10
2018-03-24T05:09:15.104Z,22.10
2018-03-24T05:10:15.001Z,22.10
2018-03-24T05:11:14.898Z,24.30
2018-03-24T05:12:14.800Z,23.30
2018-03-24T05:13:14.678Z,24.10
2018-03-24T05:14:14.890Z,23.80
2018-03-24T05:15:14.472Z,24.60
2018-03-24T05:16:14.368Z,23.90
2018-03-24T05:17:14.265Z,24.80
2018-03-24T05:18:14.150Z,23.60
2018-03-24T05:19:14.046Z,25.20
2018-03-24T05:20:13.943Z,22.30
2018-03-24T05:21:13.840Z,25.70
2018-03-24T05:22:13.737Z,25.10
2018-03-24T05:23:13.634Z,22.30
2018-03-24T05:24:13.766Z,24.50
2018-03-24T05:25:13.413Z,26.30
2018-03-24T05:26:13.338Z,24.70
2018-03-24T05:27:13.206Z,23.80
2018-03-24T05:28:13.103Z,24.00
2018-03-24T05:29:13.000Z,22.90
2018-03-24T05:30:12.897Z,24.10
2018-03-24T05:31:12.784Z,23.50
2018-03-24T05:32:12.678Z,25.70
2018-03-24T05:33:12.575Z,24.70
2018-03-24T05:34:12.472Z,23.20
2018-03-24T05:35:12.368Z,24.50
2018-03-24T05:36:12.253Z,24.30
2018-03-24T05:37:12.149Z,25.00
2018-03-24T05:38:12.045Z,23.60
2018-03-24T05:39:11.942Z,23.20
2018-03-24T05:40:11.851Z,25.10
2018-03-24T05:41:11.735Z,24.10
2018-03-24T05:42:11.632Z,23.40
2018-03-24T05:43:11.518Z,22.90
2018-03-24T05:44:11.414Z,23.20
2018-03-24T05:45:11.310Z,22.30
2018-03-24T05:46:11.208Z,23.20
2018-03-24T05:47:11.106Z,23.10
2018-03-24T05:48:10.999Z,22.10
2018-03-24T05:49:10.889Z,24.00
2018-03-24T05:50:10.781Z,25.20
2018-03-24T05:51:10.678Z,24.60
2018-03-24T05:52:10.574Z,23.00
2018-03-24T05:53:10.484Z,22.60
2018-03-24T05:54:10.367Z,23.50
2018-03-24T05:55:10.264Z,25.20
2018-03-24T05:56:10.149Z,23.60
2018-03-24T05:57:10.045Z,23.00
2018-03-24T05:58:09.942Z,24.00
2018-03-24T05:59:09.839Z,23.30
2018-03-24T06:00:09.736Z,21.50
2018-03-24T06:01:09.632Z,24.50
2018-03-24T06:02:09.528Z,22.50
2018-03-24T06:03:09.414Z,23.80
2018-03-24T06:04:09.310Z,22.50
2018-03-24T06:05:09.205Z,22.60
2018-03-24T06:06:09.102Z,23.00
2018-03-24T06:07:08.999Z,22.30
2018-03-24T06:08:08.896Z,22.90
2018-03-24T06:09:08.801Z,21.70
2018-03-24T06:10:08.721Z,24.30
2018-03-24T06:11:08.574Z,22.40
2018-03-24T06:12:08.471Z,22.90
2018-03-24T06:13:08.368Z,24.80
2018-03-24T06:14:08.265Z,23.60
2018-03-24T06:15:08.162Z,22.60
2018-03-24T06:16:08.058Z,23.90
2018-03-24T06:17:07.955Z,23.90
2018-03-24T06:18:07.839Z,23.40
2018-03-24T06:19:07.734Z,25.30
2018-03-24T06:20:07.633Z,23.30
2018-03-24T06:21:07.541Z,22.70
2018-03-24T06:22:07.464Z,22.10
2018-03-24T06:23:07.320Z,23.80
2018-03-24T06:24:07.217Z,23.60
2018-03-24T06:25:07.114Z,25.30
2018-03-24T06:26:07.015Z,23.10
2018-03-24T06:27:06.896Z,24.30
2018-03-24T06:28:06.793Z,23.00
2018-03-24T06:29:06.689Z,24.60
2018-03-24T06:30:06.586Z,23.00
2018-03-24T06:31:06.488Z,24.70
2018-03-24T06:32:06.379Z,22.10
2018-03-24T06:33:06.276Z,23.10
2018-03-24T06:34:06.175Z,22.10
2018-03-24T06:35:06.058Z,23.50
2018-03-24T06:36:05.953Z,22.30
2018-03-24T06:37:05.852Z,23.00
2018-03-24T06:38:05.756Z,24.20
2018-03-24T06:39:05.643Z,24.20
2018-03-24T06:40:05.539Z,24.80
2018-03-24T06:41:05.436Z,22.10
2018-03-24T06:42:05.333Z,21.30
2018-03-24T06:43:05.242Z,26.10
2018-03-24T06:44:05.126Z,23.20
2018-03-24T06:45:05.022Z,22.30
2018-03-24T06:46:04.908Z,24.20
2018-03-24T06:47:04.805Z,23.30
2018-03-24T06:48:04.701Z,22.10
2018-03-24T06:49:04.598Z,22.50
2018-03-24T06:50:04.495Z,21.70
2018-03-24T06:51:04.391Z,22.10
2018-03-24T06:52:04.288Z,23.10
2018-03-24T06:53:04.185Z,23.80
2018-03-24T06:54:04.081Z,23.30
2018-03-24T06:55:03.978Z,21.10
2018-03-24T06:56:03.875Z,21.70
2018-03-24T06:57:03.774Z,24.90
2018-03-24T06:58:03.656Z,23.30
2018-03-24T06:59:03.551Z,24.30
2018-03-24T07:00:03.448Z,22.80
2018-03-24T07:01:03.344Z,25.00
2018-03-24T07:02:03.241Z,25.10
2018-03-24T07:03:03.138Z,22.80
2018-03-24T07:04:03.035Z,24.80
2018-03-24T07:05:02.931Z,23.30
2018-03-24T07:06:02.829Z,25.40
2018-03-24T07:07:02.728Z,22.00
2018-03-24T07:08:02.621Z,21.70
2018-03-24T07:09:02.519Z,22.40
2018-03-24T07:10:02.428Z,21.90
2018-03-24T07:11:02.312Z,22.80
2018-03-24T07:12:02.208Z,23.30
2018-03-24T07:13:02.106Z,22.70
2018-03-24T07:14:02.002Z,22.40
2018-03-24T07:15:01.898Z,22.20
2018-03-24T07:16:01.784Z,23.60
2018-03-24T07:17:01.681Z,21.50
2018-03-24T07:18:01.579Z,22.50
2018-03-24T07:19:01.475Z,23.10
2018-03-24T07:20:01.371Z,22.20
2018-03-24T07:21:01.267Z,23.60
2018-03-24T07:22:01.164Z,23.60
2018-03-24T07:23:01.060Z,24.10
2018-03-24T07:24:00.957Z,23.70
2018-03-24T07:25:00.859Z,22.30
2018-03-24T07:26:00.751Z,22.90
2018-03-24T07:27:00.646Z,22.30
2018-03-24T07:28:00.544Z,23.70
2018-03-24T07:29:00.482Z,24.20
2018-03-24T07:30:00.337Z,22.50
2018-03-24T07:31:00.232Z,21.00
2018-03-24T07:32:00.135Z,22.80
2018-03-24T07:33:00.032Z,23.00
2018-03-24T07:33:59.924Z,20.50
2018-03-24T07:34:59.820Z,23.20
2018-03-24T07:35:59.721Z,20.70
2018-03-24T07:36:59.614Z,22.70
2018-03-24T07:37:59.510Z,21.70
2018-03-24T07:38:59.407Z,23.40
2018-03-24T07:39:59.303Z,23.10
2018-03-24T07:40:59.200Z,23.50
2018-03-24T07:41:59.097Z,21.50
2018-03-24T07:42:58.994Z,22.80
2018-03-24T07:43:58.889Z,23.70
2018-03-24T07:44:58.787Z,24.30
2018-03-24T07:45:58.684Z,22.50
2018-03-24T07:46:58.580Z,25.40
2018-03-24T07:47:58.477Z,21.60
2018-03-24T07:48:58.379Z,25.10
2018-03-24T07:49:58.270Z,19.80
2018-03-24T07:50:58.167Z,23.30
2018-03-24T07:51:58.066Z,21.60
2018-03-24T07:52:57.960Z,24.10
2018-03-24T07:53:57.858Z,21.80
2018-03-24T07:54:57.753Z,20.00
2018-03-24T07:55:57.651Z,20.60
2018-03-24T07:56:57.552Z,21.10
2018-03-24T07:57:57.443Z,21.60
2018-03-24T07:58:57.340Z,20.40
2018-03-24T07:59:57.239Z,21.00
2018-03-24T08:00:57.140Z,21.90
2018-03-24T08:01:57.042Z,19.60
2018-03-24T08:02:56.939Z,20.50
2018-03-24T08:03:56.842Z,22.60
2018-03-24T08:04:56.732Z,22.70
2018-03-24T08:05:56.629Z,21.70
2018-03-24T08:06:56.525Z,21.00
2018-03-24T08:07:56.421Z,21.10
2018-03-24T08:08:56.318Z,21.70
2018-03-24T08:09:56.215Z,21.60
2018-03-24T08:10:56.112Z,19.20
2018-03-24T08:11:56.009Z,21.40
2018-03-24T08:12:55.910Z,18.60
2018-03-24T08:13:55.802Z,19.50
2018-03-24T08:14:55.699Z,20.40
2018-03-24T08:15:55.596Z,20.10
2018-03-24T08:16:55.538Z,19.10
2018-03-24T08:17:55.402Z,19.40
2018-03-24T08:18:55.300Z,19.40
2018-03-24T08:19:55.200Z,19.60
2018-03-24T08:20:55.093Z,18.30
2018-03-24T08:21:54.989Z,20.60
2018-03-24T08:22:54.889Z,19.80
2018-03-24T08:23:54.783Z,22.20
2018-03-24T08:24:54.679Z,17.70
2018-03-24T08:25:54.576Z,17.20
2018-03-24T08:26:54.473Z,18.40
2018-03-24T08:27:54.381Z,19.60
2018-03-24T08:28:54.279Z,18.00
2018-03-24T08:29:54.174Z,18.30
2018-03-24T08:30:54.071Z,19.70
2018-03-24T08:31:53.968Z,19.60
2018-03-24T08:32:53.864Z,20.40
2018-03-24T08:33:53.762Z,18.50
2018-03-24T08:34:53.658Z,19.30
2018-03-24T08:35:53.555Z,20.40
2018-03-24T08:36:53.464Z,19.60
2018-03-24T08:37:53.361Z,20.70
2018-03-24T08:38:53.258Z,18.10
2018-03-24T08:39:53.161Z,18.00
2018-03-24T08:40:53.052Z,17.90
2018-03-24T08:41:52.948Z,18.80
2018-03-24T08:42:52.847Z,18.70
2018-03-24T08:43:52.741Z,18.50
2018-03-24T08:44:52.652Z,18.30
2018-03-24T08:45:52.548Z,20.10
2018-03-24T08:46:52.463Z,20.10
2018-03-24T08:47:52.340Z,17.40
2018-03-24T08:48:52.236Z,19.30
2018-03-24T08:49:52.133Z,18.30
2018-03-24T08:50:52.030Z,17.60
2018-03-24T08:51:51.981Z,19.10
2018-03-24T08:52:51.836Z,19.30
2018-03-24T08:53:51.733Z,18.90
2018-03-24T08:54:51.631Z,17.60
2018-03-24T08:55:51.526Z,21.10
2018-03-24T08:56:51.424Z,18.40
2018-03-24T08:57:51.332Z,18.10
2018-03-24T08:58:51.229Z,19.50
2018-03-24T08:59:51.125Z,18.40
2018-03-24T09:00:51.022Z,17.70
2018-03-24T09:01:50.920Z,17.70
2018-03-24T09:02:50.828Z,18.90
2018-03-24T09:03:50.726Z,18.40
2018-03-24T09:04:50.622Z,18.10
2018-03-24T09:05:50.518Z,17.30
2018-03-24T09:06:50.434Z,17.50
2018-03-24T09:07:50.323Z,19.40
2018-03-24T09:08:50.245Z,18.10
2018-03-24T09:09:50.119Z,19.60
2018-03-24T09:10:50.014Z,18.60
2018-03-24T09:11:49.923Z,17.20
2018-03-24T09:12:49.820Z,18.50
2018-03-24T09:13:49.719Z,17.70
2018-03-24T09:14:49.614Z,20.50
2018-03-24T09:15:49.511Z,19.50
2018-03-24T09:16:49.419Z,18.70
2018-03-24T09:17:49.316Z,19.50
2018-03-24T09:18:49.212Z,19.90
2018-03-24T09:19:49.109Z,20.40
2018-03-24T09:20:49.021Z,18.40
2018-03-24T09:21:48.916Z,19.70
2018-03-24T09:22:48.812Z,20.40
2018-03-24T09:23:48.959Z,20.10
2018-03-24T09:24:48.617Z,18.60
2018-03-24T09:25:48.514Z,17.90
2018-03-24T09:26:48.410Z,18.00
2018-03-24T09:27:48.308Z,20.00
2018-03-24T09:28:48.205Z,19.10
2018-03-24T09:29:48.114Z,18.40
2018-03-24T09:30:48.011Z,20.40
2018-03-24T09:31:47.908Z,19.90
2018-03-24T09:32:47.805Z,19.40
2018-03-24T09:33:47.713Z,20.00
2018-03-24T09:34:47.609Z,18.60
2018-03-24T09:35:47.506Z,18.60
2018-03-24T09:36:47.402Z,18.70
2018-03-24T09:37:47.312Z,19.80
2018-03-24T09:38:47.209Z,19.00
2018-03-24T09:39:47.106Z,20.10
2018-03-24T09:40:47.003Z,21.50
2018-03-24T09:41:46.911Z,18.60
2018-03-24T09:42:46.808Z,20.00
2018-03-24T09:43:46.704Z,20.20
2018-03-24T09:44:46.614Z,20.00
2018-03-24T09:45:46.512Z,21.70
2018-03-24T09:46:46.409Z,20.20
2018-03-24T09:47:46.305Z,19.70
2018-03-24T09:48:46.213Z,19.50
2018-03-24T09:49:46.110Z,20.40
2018-03-24T09:50:46.006Z,20.30
2018-03-24T09:51:45.916Z,20.30
2018-03-24T09:52:45.872Z,21.40
2018-03-24T09:53:45.710Z,19.30
2018-03-24T09:54:45.607Z,21.80
2018-03-24T09:55:45.515Z,19.70
2018-03-24T09:56:45.410Z,20.20
2018-03-24T09:57:45.325Z,18.50
2018-03-24T09:58:45.219Z,20.00
2018-03-24T09:59:45.120Z,19.50
2018-03-24T10:00:45.012Z,20.10
2018-03-24T10:01:44.920Z,18.60
2018-03-24T10:02:44.816Z,19.50
2018-03-24T10:03:44.713Z,20.30
2018-03-24T10:04:44.625Z,19.90
2018-03-24T10:05:44.520Z,18.20
2018-03-24T10:06:44.417Z,18.10
2018-03-24T10:07:44.325Z,19.20
2018-03-24T10:08:44.222Z,21.30
2018-03-24T10:09:44.118Z,20.30
2018-03-24T10:10:44.016Z,19.20
2018-03-24T10:11:43.925Z,19.80
2018-03-24T10:12:43.822Z,19.90
2018-03-24T10:13:43.730Z,20.30
2018-03-24T10:14:43.627Z,18.50
2018-03-24T10:15:43.523Z,17.70
2018-03-24T10:16:43.475Z,21.70
2018-03-24T10:17:43.330Z,19.60
2018-03-24T10:18:43.228Z,17.20
2018-03-24T10:19:43.123Z,20.10
2018-03-24T10:20:43.032Z,18.70
2018-03-24T10:21:42.927Z,18.10
2018-03-24T10:22:42.826Z,17.90
2018-03-24T10:23:42.738Z,17.60
2018-03-24T10:24:42.632Z,18.20
2018-03-24T10:25:42.528Z,18.50
2018-03-24T10:26:42.492Z,18.70
2018-03-24T10:27:42.347Z,20.50
2018-03-24T10:28:42.232Z,17.20
2018-03-24T10:29:42.140Z,18.90
2018-03-24T10:30:42.036Z,17.90
2018-03-24T10:31:41.945Z,17.60
2018-03-24T10:32:41.842Z,16.60
2018-03-24T10:33:41.738Z,17.00
2018-03-24T10:34:41.649Z,16.60
2018-03-24T10:35:41.545Z,15.60
2018-03-24T10:36:41.444Z,18.00
2018-03-24T10:37:41.355Z,18.80
2018-03-24T10:38:41.248Z,15.60
2018-03-24T10:39:41.145Z,16.70
2018-03-24T10:40:41.054Z,15.70
2018-03-24T10:41:40.949Z,16.30
2018-03-24T10:42:40.859Z,16.70
2018-03-24T10:43:40.755Z,18.30
2018-03-24T10:44:40.653Z,15.40
2018-03-24T10:45:40.562Z,15.10
2018-03-24T10:46:40.459Z,15.50
2018-03-24T10:47:40.355Z,15.60
2018-03-24T10:48:40.264Z,15.30
2018-03-24T10:49:40.160Z,14.60
2018-03-24T10:50:40.057Z,16.50
2018-03-24T10:51:39.967Z,16.80
2018-03-24T10:52:39.864Z,13.80
2018-03-24T10:53:39.760Z,13.90
2018-03-24T10:54:39.669Z,12.40
2018-03-24T10:55:39.565Z,11.60
2018-03-24T10:56:39.462Z,13.40
2018-03-24T10:57:39.373Z,15.10
2018-03-24T10:58:39.269Z,14.60
2018-03-24T10:59:39.165Z,14.40
2018-03-24T11:00:39.089Z,14.50
2018-03-24T11:01:38.972Z,15.20
2018-03-24T11:02:38.867Z,15.10
2018-03-24T11:03:38.767Z,14.60
2018-03-24T11:04:38.675Z,15.50
2018-03-24T11:05:38.567Z,11.60
2018-03-24T11:06:38.468Z,11.70
2018-03-24T11:07:38.377Z,11.60
2018-03-24T11:08:38.272Z,12.50
2018-03-24T11:09:38.169Z,13.80
2018-03-24T11:10:38.084Z,15.30
2018-03-24T11:11:37.976Z,14.40
2018-03-24T11:12:37.873Z,14.60
2018-03-24T11:13:37.781Z,13.30
2018-03-24T11:14:37.677Z,15.30
2018-03-24T11:15:37.574Z,13.00
2018-03-24T11:16:37.485Z,13.30
2018-03-24T11:17:37.381Z,13.50
2018-03-24T11:18:37.277Z,15.50
2018-03-24T11:19:37.186Z,16.00
2018-03-24T11:20:37.083Z,13.70
2018-03-24T11:21:36.980Z,12.90
2018-03-24T11:22:36.890Z,13.90
2018-03-24T11:23:36.786Z,13.50
2018-03-24T11:24:36.683Z,13.80
2018-03-24T11:25:36.604Z,14.30
2018-03-24T11:26:36.488Z,14.40
2018-03-24T11:27:36.384Z,14.30
2018-03-24T11:28:36.294Z,15.30
2018-03-24T11:29:36.190Z,13.70
2018-03-24T11:30:36.098Z,13.70
2018-03-24T11:31:35.996Z,13.30
2018-03-24T11:32:35.893Z,14.00
2018-03-24T11:33:35.803Z,14.30
2018-03-24T11:34:35.700Z,14.50
2018-03-24T11:35:35.597Z,16.30
2018-03-24T11:36:35.505Z,15.80
2018-03-24T11:37:35.401Z,15.80
2018-03-24T11:38:35.297Z,15.30
2018-03-24T11:39:35.208Z,13.90
2018-03-24T11:40:35.105Z,15.20
2018-03-24T11:41:35.003Z,14.20
2018-03-24T11:42:34.909Z,13.70
2018-03-24T11:43:34.808Z,15.70
2018-03-24T11:44:34.703Z,15.20
2018-03-24T11:45:34.615Z,14.40
2018-03-24T11:46:34.509Z,14.20
2018-03-24T11:47:34.408Z,13.90
2018-03-24T11:48:34.316Z,13.30
2018-03-24T11:49:34.211Z,13.60
2018-03-24T11:50:34.108Z,14.50
2018-03-24T11:51:34.018Z,14.90
2018-03-24T11:52:33.917Z,14.80
2018-03-24T11:53:33.811Z,13.80
2018-03-24T11:54:33.719Z,14.50
2018-03-24T11:55:33.616Z,14.00
2018-03-24T11:56:33.526Z,13.80
2018-03-24T11:57:33.423Z,14.10
2018-03-24T11:58:33.321Z,13.60
2018-03-24T11:59:33.217Z,14.40
2018-03-24T12:00:33.125Z,14.50
2018-03-24T12:01:33.022Z,16.60
2018-03-24T12:02:32.931Z,15.50
2018-03-24T12:03:32.829Z,15.50
2018-03-24T12:04:32.725Z,14.00
2018-03-24T12:05:32.633Z,15.40
2018-03-24T12:06:32.530Z,15.80
2018-03-24T12:07:32.428Z,14.80
2018-03-24T12:08:32.336Z,14.20
2018-03-24T12:09:32.234Z,14.20
2018-03-24T12:10:32.141Z,14.00
2018-03-24T12:11:32.038Z,14.30
2018-03-24T12:12:31.936Z,14.60
2018-03-24T12:13:31.844Z,15.10
2018-03-24T12:14:31.742Z,14.40
2018-03-24T12:15:31.650Z,14.10
2018-03-24T12:16:31.546Z,14.00
2018-03-24T12:17:31.446Z,14.90
2018-03-24T12:18:31.354Z,15.20
2018-03-24T12:19:31.250Z,13.50
2018-03-24T12:20:31.158Z,14.10
2018-03-24T12:21:31.060Z,15.60
2018-03-24T12:22:30.952Z,13.60
2018-03-24T12:23:30.867Z,13.50
2018-03-24T12:24:30.758Z,15.10
2018-03-24T12:25:30.669Z,15.40
2018-03-24T12:26:30.565Z,14.40
2018-03-24T12:27:30.474Z,15.80
2018-03-24T12:28:30.370Z,16.20
2018-03-24T12:29:30.266Z,17.10
2018-03-24T12:30:30.166Z,14.40
2018-03-24T12:31:30.072Z,14.70
2018-03-24T12:32:29.969Z,14.30
2018-03-24T12:33:29.878Z,15.60
2018-03-24T12:34:29.775Z,15.20
2018-03-24T12:35:29.672Z,15.30
2018-03-24T12:36:29.580Z,14.80
2018-03-24T12:37:29.477Z,15.00
2018-03-24T12:38:29.374Z,16.50
2018-03-24T12:39:29.283Z,15.40
2018-03-24T12:40:29.179Z,14.30
2018-03-24T12:41:29.089Z,14.80
2018-03-24T12:42:28.985Z,17.80
2018-03-24T12:43:28.883Z,15.70
2018-03-24T12:44:28.794Z,15.60
2018-03-24T12:45:28.688Z,14.70
2018-03-24T12:46:28.597Z,14.90
2018-03-24T12:47:28.493Z,14.90
2018-03-24T12:48:28.403Z,15.80
2018-03-24T12:49:28.300Z,15.80
2018-03-24T12:50:28.202Z,14.70
2018-03-24T12:51:28.106Z,14.10